sensor_id;sensor_type;location;lat;lon;timestamp;pressure;altitude;pressure_sealevel;temperature
14851;BMP180;7517;48.400;11.770;2023-07-31T00:00:48;96594.00;;;20.10
14851;BMP180;7517;48.400;11.770;2023-07-31T00:03:15;96598.00;;;20.10
14851;BMP180;7517;48.400;11.770;2023-07-31T00:05:42;96592.00;;;20.10
14851;BMP180;7517;48.400;11.770;2023-07-31T00:08:10;96597.00;;;20.00
14851;BMP180;7517;48.400;11.770;2023-07-31T00:10:37;96586.00;;;20.00
14851;BMP180;7517;48.400;11.770;2023-07-31T00:13:04;96599.00;;;20.00
14851;BMP180;7517;48.400;11.770;2023-07-31T00:15:32;96605.00;;;19.90
14851;BMP180;7517;48.400;11.770;2023-07-31T00:18:01;96594.00;;;19.90
14851;BMP180;7517;48.400;11.770;2023-07-31T00:20:29;96593.00;;;19.90
14851;BMP180;7517;48.400;11.770;2023-07-31T00:22:56;96590.00;;;19.80
14851;BMP180;7517;48.400;11.770;2023-07-31T00:25:23;96588.00;;;19.80
14851;BMP180;7517;48.400;11.770;2023-07-31T00:27:50;96595.00;;;19.70
14851;BMP180;7517;48.400;11.770;2023-07-31T00:30:18;96597.00;;;19.70
14851;BMP180;7517;48.400;11.770;2023-07-31T00:32:45;96595.00;;;19.70
14851;BMP180;7517;48.400;11.770;2023-07-31T00:35:14;96592.00;;;19.70
14851;BMP180;7517;48.400;11.770;2023-07-31T00:37:41;96588.00;;;19.60
14851;BMP180;7517;48.400;11.770;2023-07-31T00:40:09;96587.00;;;19.60
14851;BMP180;7517;48.400;11.770;2023-07-31T00:42:37;96590.00;;;19.50
14851;BMP180;7517;48.400;11.770;2023-07-31T00:45:05;96582.00;;;19.50
14851;BMP180;7517;48.400;11.770;2023-07-31T00:47:33;96584.00;;;19.50
14851;BMP180;7517;48.400;11.770;2023-07-31T00:50:00;96584.00;;;19.40
14851;BMP180;7517;48.400;11.770;2023-07-31T00:52:30;96581.00;;;19.40
14851;BMP180;7517;48.400;11.770;2023-07-31T00:54:57;96577.00;;;19.40
14851;BMP180;7517;48.400;11.770;2023-07-31T00:57:25;96574.00;;;19.30
14851;BMP180;7517;48.400;11.770;2023-07-31T00:59:53;96579.00;;;19.30
14851;BMP180;7517;48.400;11.770;2023-07-31T01:02:21;96572.00;;;19.20
14851;BMP180;7517;48.400;11.770;2023-07-31T01:04:48;96576.00;;;19.20
14851;BMP180;7517;48.400;11.770;2023-07-31T01:07:26;96574.00;;;19.20
14851;BMP180;7517;48.400;11.770;2023-07-31T01:10:08;96578.00;;;19.10
14851;BMP180;7517;48.400;11.770;2023-07-31T01:12:39;96575.00;;;19.10
14851;BMP180;7517;48.400;11.770;2023-07-31T01:15:09;96570.00;;;19.10
14851;BMP180;7517;48.400;11.770;2023-07-31T01:17:41;96562.00;;;19.00
14851;BMP180;7517;48.400;11.770;2023-07-31T01:20:13;96561.00;;;19.00
14851;BMP180;7517;48.400;11.770;2023-07-31T01:26:05;96554.00;;;18.90
14851;BMP180;7517;48.400;11.770;2023-07-31T01:28:46;96558.00;;;18.90
14851;BMP180;7517;48.400;11.770;2023-07-31T01:31:22;96557.00;;;18.90
14851;BMP180;7517;48.400;11.770;2023-07-31T01:33:53;96548.00;;;18.90
14851;BMP180;7517;48.400;11.770;2023-07-31T01:36:21;96551.00;;;18.80
14851;BMP180;7517;48.400;11.770;2023-07-31T01:38:49;96551.00;;;18.80
14851;BMP180;7517;48.400;11.770;2023-07-31T01:41:18;96542.00;;;18.80
14851;BMP180;7517;48.400;11.770;2023-07-31T01:43:46;96544.00;;;18.80
14851;BMP180;7517;48.400;11.770;2023-07-31T01:46:13;96544.00;;;18.80
14851;BMP180;7517;48.400;11.770;2023-07-31T01:48:40;96541.00;;;18.70
14851;BMP180;7517;48.400;11.770;2023-07-31T01:51:08;96544.00;;;18.70
14851;BMP180;7517;48.400;11.770;2023-07-31T01:53:35;96533.00;;;18.70
14851;BMP180;7517;48.400;11.770;2023-07-31T01:56:02;96544.00;;;18.60
14851;BMP180;7517;48.400;11.770;2023-07-31T01:58:31;96542.00;;;18.60
14851;BMP180;7517;48.400;11.770;2023-07-31T02:00:58;96545.00;;;18.60
14851;BMP180;7517;48.400;11.770;2023-07-31T02:03:26;96540.00;;;18.60
14851;BMP180;7517;48.400;11.770;2023-07-31T02:05:54;96532.00;;;18.60
14851;BMP180;7517;48.400;11.770;2023-07-31T02:08:22;96542.00;;;18.60
14851;BMP180;7517;48.400;11.770;2023-07-31T02:10:49;96536.00;;;18.50
14851;BMP180;7517;48.400;11.770;2023-07-31T02:13:17;96523.00;;;18.50
14851;BMP180;7517;48.400;11.770;2023-07-31T02:15:47;96527.00;;;18.50
14851;BMP180;7517;48.400;11.770;2023-07-31T02:18:16;96533.00;;;18.50
14851;BMP180;7517;48.400;11.770;2023-07-31T02:20:43;96522.00;;;18.50
14851;BMP180;7517;48.400;11.770;2023-07-31T02:23:12;96516.00;;;18.50
14851;BMP180;7517;48.400;11.770;2023-07-31T02:25:39;96511.00;;;18.50
14851;BMP180;7517;48.400;11.770;2023-07-31T02:28:07;96511.00;;;18.50
14851;BMP180;7517;48.400;11.770;2023-07-31T02:30:36;96512.00;;;18.40
14851;BMP180;7517;48.400;11.770;2023-07-31T02:33:07;96510.00;;;18.40
14851;BMP180;7517;48.400;11.770;2023-07-31T02:35:35;96506.00;;;18.40
14851;BMP180;7517;48.400;11.770;2023-07-31T02:38:03;96504.00;;;18.40
14851;BMP180;7517;48.400;11.770;2023-07-31T02:40:30;96506.00;;;18.40
14851;BMP180;7517;48.400;11.770;2023-07-31T02:42:57;96500.00;;;18.40
14851;BMP180;7517;48.400;11.770;2023-07-31T02:45:24;96498.00;;;18.30
14851;BMP180;7517;48.400;11.770;2023-07-31T02:47:52;96503.00;;;18.30
14851;BMP180;7517;48.400;11.770;2023-07-31T02:50:20;96493.00;;;18.30
14851;BMP180;7517;48.400;11.770;2023-07-31T02:52:48;96492.00;;;18.30
14851;BMP180;7517;48.400;11.770;2023-07-31T02:55:15;96484.00;;;18.20
14851;BMP180;7517;48.400;11.770;2023-07-31T02:57:44;96480.00;;;18.20
14851;BMP180;7517;48.400;11.770;2023-07-31T03:00:12;96487.00;;;18.20
14851;BMP180;7517;48.400;11.770;2023-07-31T03:02:39;96486.00;;;18.20
14851;BMP180;7517;48.400;11.770;2023-07-31T03:05:07;96487.00;;;18.10
14851;BMP180;7517;48.400;11.770;2023-07-31T03:07:36;96484.00;;;18.10
14851;BMP180;7517;48.400;11.770;2023-07-31T03:10:04;96480.00;;;18.10
14851;BMP180;7517;48.400;11.770;2023-07-31T03:12:32;96478.00;;;18.10
14851;BMP180;7517;48.400;11.770;2023-07-31T03:14:59;96479.00;;;18.00
14851;BMP180;7517;48.400;11.770;2023-07-31T03:17:26;96479.00;;;18.00
14851;BMP180;7517;48.400;11.770;2023-07-31T03:19:55;96479.00;;;18.00
14851;BMP180;7517;48.400;11.770;2023-07-31T03:22:22;96486.00;;;18.00
14851;BMP180;7517;48.400;11.770;2023-07-31T03:24:52;96474.00;;;17.90
14851;BMP180;7517;48.400;11.770;2023-07-31T03:27:19;96475.00;;;17.90
14851;BMP180;7517;48.400;11.770;2023-07-31T03:29:46;96478.00;;;17.90
14851;BMP180;7517;48.400;11.770;2023-07-31T03:32:15;96480.00;;;17.90
14851;BMP180;7517;48.400;11.770;2023-07-31T03:34:42;96487.00;;;17.80
14851;BMP180;7517;48.400;11.770;2023-07-31T03:37:09;96477.00;;;17.80
14851;BMP180;7517;48.400;11.770;2023-07-31T03:39:36;96489.00;;;17.80
14851;BMP180;7517;48.400;11.770;2023-07-31T03:42:06;96486.00;;;17.80
14851;BMP180;7517;48.400;11.770;2023-07-31T03:44:34;96489.00;;;17.70
14851;BMP180;7517;48.400;11.770;2023-07-31T03:47:01;96488.00;;;17.70
14851;BMP180;7517;48.400;11.770;2023-07-31T03:49:29;96492.00;;;17.70
14851;BMP180;7517;48.400;11.770;2023-07-31T03:51:56;96489.00;;;17.70
14851;BMP180;7517;48.400;11.770;2023-07-31T03:54:23;96500.00;;;17.70
14851;BMP180;7517;48.400;11.770;2023-07-31T03:56:51;96493.00;;;17.70
14851;BMP180;7517;48.400;11.770;2023-07-31T03:59:20;96483.00;;;17.70
14851;BMP180;7517;48.400;11.770;2023-07-31T04:01:49;96490.00;;;17.70
14851;BMP180;7517;48.400;11.770;2023-07-31T04:04:16;96488.00;;;17.70
14851;BMP180;7517;48.400;11.770;2023-07-31T04:06:43;96490.00;;;17.70
14851;BMP180;7517;48.400;11.770;2023-07-31T04:09:10;96486.00;;;17.70
14851;BMP180;7517;48.400;11.770;2023-07-31T04:11:37;96483.00;;;17.70
14851;BMP180;7517;48.400;11.770;2023-07-31T04:14:05;96486.00;;;17.70
14851;BMP180;7517;48.400;11.770;2023-07-31T04:16:34;96487.00;;;17.70
14851;BMP180;7517;48.400;11.770;2023-07-31T04:19:04;96477.00;;;17.70
14851;BMP180;7517;48.400;11.770;2023-07-31T04:21:31;96479.00;;;17.70
14851;BMP180;7517;48.400;11.770;2023-07-31T04:23:59;96483.00;;;17.70
14851;BMP180;7517;48.400;11.770;2023-07-31T04:26:26;96474.00;;;17.70
14851;BMP180;7517;48.400;11.770;2023-07-31T04:28:53;96473.00;;;17.70
14851;BMP180;7517;48.400;11.770;2023-07-31T04:31:20;96472.00;;;17.80
14851;BMP180;7517;48.400;11.770;2023-07-31T04:33:49;96475.00;;;17.80
14851;BMP180;7517;48.400;11.770;2023-07-31T04:36:18;96468.00;;;17.80
14851;BMP180;7517;48.400;11.770;2023-07-31T04:38:45;96475.00;;;17.80
14851;BMP180;7517;48.400;11.770;2023-07-31T04:41:12;96476.00;;;17.80
14851;BMP180;7517;48.400;11.770;2023-07-31T04:43:39;96471.00;;;17.80
14851;BMP180;7517;48.400;11.770;2023-07-31T04:46:07;96472.00;;;17.90
14851;BMP180;7517;48.400;11.770;2023-07-31T04:48:34;96468.00;;;17.90
14851;BMP180;7517;48.400;11.770;2023-07-31T04:51:03;96466.00;;;17.90
14851;BMP180;7517;48.400;11.770;2023-07-31T04:53:30;96474.00;;;18.00
14851;BMP180;7517;48.400;11.770;2023-07-31T04:55:58;96467.00;;;18.00
14851;BMP180;7517;48.400;11.770;2023-07-31T04:58:25;96462.00;;;18.10
14851;BMP180;7517;48.400;11.770;2023-07-31T05:00:53;96462.00;;;18.10
14851;BMP180;7517;48.400;11.770;2023-07-31T05:03:20;96455.00;;;18.20
14851;BMP180;7517;48.400;11.770;2023-07-31T05:05:47;96459.00;;;18.20
14851;BMP180;7517;48.400;11.770;2023-07-31T05:08:16;96462.00;;;18.30
14851;BMP180;7517;48.400;11.770;2023-07-31T05:10:43;96464.00;;;18.30
14851;BMP180;7517;48.400;11.770;2023-07-31T05:13:11;96460.00;;;18.40
14851;BMP180;7517;48.400;11.770;2023-07-31T05:15:38;96461.00;;;18.40
14851;BMP180;7517;48.400;11.770;2023-07-31T05:18:06;96457.00;;;18.50
14851;BMP180;7517;48.400;11.770;2023-07-31T05:20:34;96463.00;;;18.50
14851;BMP180;7517;48.400;11.770;2023-07-31T05:23:01;96465.00;;;18.60
14851;BMP180;7517;48.400;11.770;2023-07-31T05:25:30;96459.00;;;18.70
14851;BMP180;7517;48.400;11.770;2023-07-31T05:27:57;96468.00;;;18.70
14851;BMP180;7517;48.400;11.770;2023-07-31T05:30:25;96469.00;;;18.80
14851;BMP180;7517;48.400;11.770;2023-07-31T05:32:52;96472.00;;;18.80
14851;BMP180;7517;48.400;11.770;2023-07-31T05:35:20;96472.00;;;18.90
14851;BMP180;7517;48.400;11.770;2023-07-31T05:37:47;96472.00;;;19.00
14851;BMP180;7517;48.400;11.770;2023-07-31T05:40:15;96477.00;;;19.10
14851;BMP180;7517;48.400;11.770;2023-07-31T05:42:43;96468.00;;;19.20
14851;BMP180;7517;48.400;11.770;2023-07-31T05:45:11;96466.00;;;19.20
14851;BMP180;7517;48.400;11.770;2023-07-31T05:47:39;96467.00;;;19.40
14851;BMP180;7517;48.400;11.770;2023-07-31T05:50:07;96468.00;;;19.50
14851;BMP180;7517;48.400;11.770;2023-07-31T05:52:34;96464.00;;;19.60
14851;BMP180;7517;48.400;11.770;2023-07-31T05:55:02;96461.00;;;19.70
14851;BMP180;7517;48.400;11.770;2023-07-31T05:57:29;96463.00;;;19.90
14851;BMP180;7517;48.400;11.770;2023-07-31T05:59:58;96459.00;;;20.00
14851;BMP180;7517;48.400;11.770;2023-07-31T06:02:25;96469.00;;;20.10
14851;BMP180;7517;48.400;11.770;2023-07-31T06:04:53;96475.00;;;20.30
14851;BMP180;7517;48.400;11.770;2023-07-31T06:07:20;96477.00;;;20.40
14851;BMP180;7517;48.400;11.770;2023-07-31T06:09:47;96483.00;;;20.50
14851;BMP180;7517;48.400;11.770;2023-07-31T06:12:15;96473.00;;;20.60
14851;BMP180;7517;48.400;11.770;2023-07-31T06:14:44;96474.00;;;20.80
14851;BMP180;7517;48.400;11.770;2023-07-31T06:17:13;96471.00;;;20.80
14851;BMP180;7517;48.400;11.770;2023-07-31T06:19:40;96485.00;;;21.00
14851;BMP180;7517;48.400;11.770;2023-07-31T06:22:07;96490.00;;;21.00
14851;BMP180;7517;48.400;11.770;2023-07-31T06:24:34;96484.00;;;21.20
14851;BMP180;7517;48.400;11.770;2023-07-31T06:27:05;96476.00;;;21.30
14851;BMP180;7517;48.400;11.770;2023-07-31T06:29:34;96476.00;;;21.40
14851;BMP180;7517;48.400;11.770;2023-07-31T06:32:02;96471.00;;;21.40
14851;BMP180;7517;48.400;11.770;2023-07-31T06:34:31;96469.00;;;21.50
14851;BMP180;7517;48.400;11.770;2023-07-31T06:36:58;96479.00;;;21.60
14851;BMP180;7517;48.400;11.770;2023-07-31T06:39:25;96472.00;;;21.70
14851;BMP180;7517;48.400;11.770;2023-07-31T06:41:54;96462.00;;;21.80
14851;BMP180;7517;48.400;11.770;2023-07-31T06:44:23;96466.00;;;21.90
14851;BMP180;7517;48.400;11.770;2023-07-31T06:46:57;96472.00;;;22.00
14851;BMP180;7517;48.400;11.770;2023-07-31T06:49:24;96476.00;;;22.00
14851;BMP180;7517;48.400;11.770;2023-07-31T06:51:53;96463.00;;;22.10
14851;BMP180;7517;48.400;11.770;2023-07-31T06:54:20;96467.00;;;22.20
14851;BMP180;7517;48.400;11.770;2023-07-31T06:56:47;96452.00;;;22.20
14851;BMP180;7517;48.400;11.770;2023-07-31T06:59:14;96458.00;;;22.30
14851;BMP180;7517;48.400;11.770;2023-07-31T07:01:41;96451.00;;;22.30
14851;BMP180;7517;48.400;11.770;2023-07-31T07:04:08;96452.00;;;22.40
14851;BMP180;7517;48.400;11.770;2023-07-31T07:06:36;96448.00;;;22.40
14851;BMP180;7517;48.400;11.770;2023-07-31T07:09:05;96453.00;;;22.50
14851;BMP180;7517;48.400;11.770;2023-07-31T07:11:32;96459.00;;;22.50
14851;BMP180;7517;48.400;11.770;2023-07-31T07:14:00;96454.00;;;22.60
14851;BMP180;7517;48.400;11.770;2023-07-31T07:16:29;96450.00;;;22.60
14851;BMP180;7517;48.400;11.770;2023-07-31T07:18:56;96458.00;;;22.70
14851;BMP180;7517;48.400;11.770;2023-07-31T07:21:23;96456.00;;;22.70
14851;BMP180;7517;48.400;11.770;2023-07-31T07:23:51;96464.00;;;22.80
14851;BMP180;7517;48.400;11.770;2023-07-31T07:26:20;96460.00;;;22.80
14851;BMP180;7517;48.400;11.770;2023-07-31T07:28:47;96468.00;;;22.90
14851;BMP180;7517;48.400;11.770;2023-07-31T07:31:14;96463.00;;;23.00
14851;BMP180;7517;48.400;11.770;2023-07-31T07:33:43;96463.00;;;23.00
14851;BMP180;7517;48.400;11.770;2023-07-31T07:36:10;96462.00;;;23.10
14851;BMP180;7517;48.400;11.770;2023-07-31T07:38:39;96457.00;;;23.10
14851;BMP180;7517;48.400;11.770;2023-07-31T07:41:07;96460.00;;;23.20
14851;BMP180;7517;48.400;11.770;2023-07-31T07:43:36;96447.00;;;23.20
14851;BMP180;7517;48.400;11.770;2023-07-31T07:46:03;96451.00;;;23.20
14851;BMP180;7517;48.400;11.770;2023-07-31T07:48:30;96450.00;;;23.30
14851;BMP180;7517;48.400;11.770;2023-07-31T07:50:59;96449.00;;;23.30
14851;BMP180;7517;48.400;11.770;2023-07-31T07:53:26;96448.00;;;23.40
14851;BMP180;7517;48.400;11.770;2023-07-31T07:55:54;96453.00;;;23.50
14851;BMP180;7517;48.400;11.770;2023-07-31T07:58:21;96452.00;;;23.60
14851;BMP180;7517;48.400;11.770;2023-07-31T08:00:51;96430.00;;;23.70
14851;BMP180;7517;48.400;11.770;2023-07-31T08:03:18;96435.00;;;23.90
14851;BMP180;7517;48.400;11.770;2023-07-31T08:05:46;96441.00;;;24.00
14851;BMP180;7517;48.400;11.770;2023-07-31T08:08:15;96437.00;;;24.20
14851;BMP180;7517;48.400;11.770;2023-07-31T08:10:43;96441.00;;;24.30
14851;BMP180;7517;48.400;11.770;2023-07-31T08:13:11;96439.00;;;24.40
14851;BMP180;7517;48.400;11.770;2023-07-31T08:15:41;96437.00;;;24.60
14851;BMP180;7517;48.400;11.770;2023-07-31T08:18:12;96435.00;;;24.70
14851;BMP180;7517;48.400;11.770;2023-07-31T08:20:39;96442.00;;;24.80
14851;BMP180;7517;48.400;11.770;2023-07-31T08:23:06;96444.00;;;24.90
14851;BMP180;7517;48.400;11.770;2023-07-31T08:25:35;96441.00;;;25.00
14851;BMP180;7517;48.400;11.770;2023-07-31T08:28:02;96448.00;;;25.10
14851;BMP180;7517;48.400;11.770;2023-07-31T08:30:30;96443.00;;;25.20
14851;BMP180;7517;48.400;11.770;2023-07-31T08:32:57;96436.00;;;25.20
14851;BMP180;7517;48.400;11.770;2023-07-31T08:35:26;96428.00;;;25.40
14851;BMP180;7517;48.400;11.770;2023-07-31T08:37:56;96443.00;;;25.50
14851;BMP180;7517;48.400;11.770;2023-07-31T08:40:23;96435.00;;;25.60
14851;BMP180;7517;48.400;11.770;2023-07-31T08:42:55;96435.00;;;25.70
14851;BMP180;7517;48.400;11.770;2023-07-31T08:45:28;96444.00;;;25.80
14851;BMP180;7517;48.400;11.770;2023-07-31T08:47:56;96442.00;;;25.90
14851;BMP180;7517;48.400;11.770;2023-07-31T08:50:25;96451.00;;;25.90
14851;BMP180;7517;48.400;11.770;2023-07-31T08:52:53;96454.00;;;26.00
14851;BMP180;7517;48.400;11.770;2023-07-31T08:55:21;96431.00;;;26.00
14851;BMP180;7517;48.400;11.770;2023-07-31T08:57:51;96445.00;;;26.00
14851;BMP180;7517;48.400;11.770;2023-07-31T09:00:20;96438.00;;;26.00
14851;BMP180;7517;48.400;11.770;2023-07-31T09:02:56;96437.00;;;26.00
14851;BMP180;7517;48.400;11.770;2023-07-31T09:05:29;96437.00;;;26.00
14851;BMP180;7517;48.400;11.770;2023-07-31T09:07:57;96435.00;;;26.00
14851;BMP180;7517;48.400;11.770;2023-07-31T09:10:25;96448.00;;;25.90
14851;BMP180;7517;48.400;11.770;2023-07-31T09:12:53;96451.00;;;25.90
14851;BMP180;7517;48.400;11.770;2023-07-31T09:15:21;96437.00;;;25.80
14851;BMP180;7517;48.400;11.770;2023-07-31T09:17:59;96438.00;;;25.80
14851;BMP180;7517;48.400;11.770;2023-07-31T09:20:28;96438.00;;;25.70
14851;BMP180;7517;48.400;11.770;2023-07-31T09:23:06;96431.00;;;25.70
14851;BMP180;7517;48.400;11.770;2023-07-31T09:25:36;96440.00;;;25.70
14851;BMP180;7517;48.400;11.770;2023-07-31T09:28:05;96440.00;;;25.70
14851;BMP180;7517;48.400;11.770;2023-07-31T09:30:45;96441.00;;;25.60
14851;BMP180;7517;48.400;11.770;2023-07-31T09:33:14;96441.00;;;25.60
14851;BMP180;7517;48.400;11.770;2023-07-31T09:35:43;96431.00;;;25.60
14851;BMP180;7517;48.400;11.770;2023-07-31T09:38:12;96436.00;;;25.60
14851;BMP180;7517;48.400;11.770;2023-07-31T09:40:41;96432.00;;;25.50
14851;BMP180;7517;48.400;11.770;2023-07-31T09:43:10;96423.00;;;25.50
14851;BMP180;7517;48.400;11.770;2023-07-31T09:45:40;96425.00;;;25.50
14851;BMP180;7517;48.400;11.770;2023-07-31T09:48:09;96425.00;;;25.40
14851;BMP180;7517;48.400;11.770;2023-07-31T09:50:38;96421.00;;;25.40
14851;BMP180;7517;48.400;11.770;2023-07-31T09:53:11;96414.00;;;25.40
14851;BMP180;7517;48.400;11.770;2023-07-31T09:55:40;96407.00;;;25.50
14851;BMP180;7517;48.400;11.770;2023-07-31T09:58:10;96412.00;;;25.50
14851;BMP180;7517;48.400;11.770;2023-07-31T10:00:40;96404.00;;;25.60
14851;BMP180;7517;48.400;11.770;2023-07-31T10:03:10;96404.00;;;25.80
14851;BMP180;7517;48.400;11.770;2023-07-31T10:05:42;96404.00;;;25.90
14851;BMP180;7517;48.400;11.770;2023-07-31T10:08:14;96395.00;;;26.10
14851;BMP180;7517;48.400;11.770;2023-07-31T10:10:44;96391.00;;;26.20
14851;BMP180;7517;48.400;11.770;2023-07-31T10:13:12;96386.00;;;26.30
14851;BMP180;7517;48.400;11.770;2023-07-31T10:15:40;96378.00;;;26.50
14851;BMP180;7517;48.400;11.770;2023-07-31T10:18:10;96367.00;;;26.60
14851;BMP180;7517;48.400;11.770;2023-07-31T10:20:38;96379.00;;;26.80
14851;BMP180;7517;48.400;11.770;2023-07-31T10:23:07;96364.00;;;27.00
14851;BMP180;7517;48.400;11.770;2023-07-31T10:25:38;96353.00;;;27.10
14851;BMP180;7517;48.400;11.770;2023-07-31T10:28:06;96354.00;;;27.30
14851;BMP180;7517;48.400;11.770;2023-07-31T10:30:34;96353.00;;;27.50
14851;BMP180;7517;48.400;11.770;2023-07-31T10:33:05;96363.00;;;27.60
14851;BMP180;7517;48.400;11.770;2023-07-31T10:35:33;96356.00;;;27.80
14851;BMP180;7517;48.400;11.770;2023-07-31T10:38:10;96350.00;;;27.90
14851;BMP180;7517;48.400;11.770;2023-07-31T10:40:41;96352.00;;;27.90
14851;BMP180;7517;48.400;11.770;2023-07-31T10:43:08;96361.00;;;28.10
14851;BMP180;7517;48.400;11.770;2023-07-31T10:45:39;96360.00;;;28.20
14851;BMP180;7517;48.400;11.770;2023-07-31T10:48:13;96369.00;;;28.40
14851;BMP180;7517;48.400;11.770;2023-07-31T10:50:48;96372.00;;;28.50
14851;BMP180;7517;48.400;11.770;2023-07-31T10:53:23;96369.00;;;28.70
14851;BMP180;7517;48.400;11.770;2023-07-31T10:55:53;96364.00;;;28.80
14851;BMP180;7517;48.400;11.770;2023-07-31T10:58:25;96367.00;;;28.90
14851;BMP180;7517;48.400;11.770;2023-07-31T11:00:57;96358.00;;;28.90
14851;BMP180;7517;48.400;11.770;2023-07-31T11:03:26;96353.00;;;29.00
14851;BMP180;7517;48.400;11.770;2023-07-31T11:06:01;96351.00;;;28.90
14851;BMP180;7517;48.400;11.770;2023-07-31T11:08:31;96351.00;;;28.90
14851;BMP180;7517;48.400;11.770;2023-07-31T11:11:16;96354.00;;;28.80
14851;BMP180;7517;48.400;11.770;2023-07-31T11:13:46;96348.00;;;28.70
14851;BMP180;7517;48.400;11.770;2023-07-31T11:16:16;96346.00;;;28.70
14851;BMP180;7517;48.400;11.770;2023-07-31T11:18:45;96346.00;;;28.50
14851;BMP180;7517;48.400;11.770;2023-07-31T11:21:14;96334.00;;;28.50
14851;BMP180;7517;48.400;11.770;2023-07-31T11:23:45;96327.00;;;28.40
14851;BMP180;7517;48.400;11.770;2023-07-31T11:26:13;96327.00;;;28.30
14851;BMP180;7517;48.400;11.770;2023-07-31T11:28:41;96314.00;;;28.20
14851;BMP180;7517;48.400;11.770;2023-07-31T11:31:10;96316.00;;;28.10
14851;BMP180;7517;48.400;11.770;2023-07-31T11:33:38;96308.00;;;28.00
14851;BMP180;7517;48.400;11.770;2023-07-31T11:36:05;96308.00;;;27.90
14851;BMP180;7517;48.400;11.770;2023-07-31T11:38:33;96308.00;;;27.90
14851;BMP180;7517;48.400;11.770;2023-07-31T11:41:03;96305.00;;;27.90
14851;BMP180;7517;48.400;11.770;2023-07-31T11:43:31;96291.00;;;27.80
14851;BMP180;7517;48.400;11.770;2023-07-31T11:46:01;96291.00;;;27.70
14851;BMP180;7517;48.400;11.770;2023-07-31T11:48:31;96284.00;;;27.70
14851;BMP180;7517;48.400;11.770;2023-07-31T11:51:03;96286.00;;;27.60
14851;BMP180;7517;48.400;11.770;2023-07-31T11:53:37;96278.00;;;27.60
14851;BMP180;7517;48.400;11.770;2023-07-31T11:56:07;96263.00;;;27.60
14851;BMP180;7517;48.400;11.770;2023-07-31T11:58:38;96269.00;;;27.60
14851;BMP180;7517;48.400;11.770;2023-07-31T12:01:08;96256.00;;;27.60
14851;BMP180;7517;48.400;11.770;2023-07-31T12:03:36;96251.00;;;27.60
14851;BMP180;7517;48.400;11.770;2023-07-31T12:06:03;96245.00;;;27.60
14851;BMP180;7517;48.400;11.770;2023-07-31T12:08:31;96241.00;;;27.60
14851;BMP180;7517;48.400;11.770;2023-07-31T12:11:04;96231.00;;;27.60
14851;BMP180;7517;48.400;11.770;2023-07-31T12:13:33;96233.00;;;27.60
14851;BMP180;7517;48.400;11.770;2023-07-31T12:16:03;96234.00;;;27.60
14851;BMP180;7517;48.400;11.770;2023-07-31T12:18:35;96230.00;;;27.60
14851;BMP180;7517;48.400;11.770;2023-07-31T12:21:07;96231.00;;;27.50
14851;BMP180;7517;48.400;11.770;2023-07-31T12:23:38;96229.00;;;27.50
14851;BMP180;7517;48.400;11.770;2023-07-31T12:26:11;96232.00;;;27.50
14851;BMP180;7517;48.400;11.770;2023-07-31T12:28:41;96219.00;;;27.60
14851;BMP180;7517;48.400;11.770;2023-07-31T12:31:11;96219.00;;;27.60
14851;BMP180;7517;48.400;11.770;2023-07-31T12:33:41;96229.00;;;27.60
14851;BMP180;7517;48.400;11.770;2023-07-31T12:36:11;96228.00;;;27.60
14851;BMP180;7517;48.400;11.770;2023-07-31T12:38:39;96213.00;;;27.70
14851;BMP180;7517;48.400;11.770;2023-07-31T12:41:06;96216.00;;;27.70
14851;BMP180;7517;48.400;11.770;2023-07-31T12:43:33;96215.00;;;27.80
14851;BMP180;7517;48.400;11.770;2023-07-31T12:46:01;96210.00;;;27.80
14851;BMP180;7517;48.400;11.770;2023-07-31T12:48:29;96211.00;;;27.80
14851;BMP180;7517;48.400;11.770;2023-07-31T12:50:57;96216.00;;;27.90
14851;BMP180;7517;48.400;11.770;2023-07-31T12:53:24;96207.00;;;27.90
14851;BMP180;7517;48.400;11.770;2023-07-31T12:55:52;96200.00;;;27.90
14851;BMP180;7517;48.400;11.770;2023-07-31T12:58:19;96209.00;;;27.90
14851;BMP180;7517;48.400;11.770;2023-07-31T13:00:46;96208.00;;;27.90
14851;BMP180;7517;48.400;11.770;2023-07-31T13:03:13;96195.00;;;27.90
14851;BMP180;7517;48.400;11.770;2023-07-31T13:05:41;96192.00;;;28.00
14851;BMP180;7517;48.400;11.770;2023-07-31T13:08:10;96193.00;;;28.00
14851;BMP180;7517;48.400;11.770;2023-07-31T13:10:38;96194.00;;;28.00
14851;BMP180;7517;48.400;11.770;2023-07-31T13:13:05;96198.00;;;28.10
14851;BMP180;7517;48.400;11.770;2023-07-31T13:15:32;96188.00;;;28.10
14851;BMP180;7517;48.400;11.770;2023-07-31T13:18:00;96182.00;;;28.10
14851;BMP180;7517;48.400;11.770;2023-07-31T13:20:27;96175.00;;;28.10
14851;BMP180;7517;48.400;11.770;2023-07-31T13:22:54;96181.00;;;28.10
14851;BMP180;7517;48.400;11.770;2023-07-31T13:25:24;96176.00;;;28.10
14851;BMP180;7517;48.400;11.770;2023-07-31T13:27:51;96165.00;;;28.10
14851;BMP180;7517;48.400;11.770;2023-07-31T13:30:18;96162.00;;;28.10
14851;BMP180;7517;48.400;11.770;2023-07-31T13:32:46;96165.00;;;28.10
14851;BMP180;7517;48.400;11.770;2023-07-31T13:35:13;96162.00;;;28.10
14851;BMP180;7517;48.400;11.770;2023-07-31T13:37:40;96161.00;;;28.10
14851;BMP180;7517;48.400;11.770;2023-07-31T13:40:09;96153.00;;;28.10
14851;BMP180;7517;48.400;11.770;2023-07-31T13:42:37;96145.00;;;28.10
14851;BMP180;7517;48.400;11.770;2023-07-31T13:45:06;96144.00;;;28.10
14851;BMP180;7517;48.400;11.770;2023-07-31T13:47:33;96141.00;;;28.10
14851;BMP180;7517;48.400;11.770;2023-07-31T13:50:03;96139.00;;;28.10
14851;BMP180;7517;48.400;11.770;2023-07-31T13:52:31;96139.00;;;28.10
14851;BMP180;7517;48.400;11.770;2023-07-31T13:54:58;96134.00;;;28.10
14851;BMP180;7517;48.400;11.770;2023-07-31T13:57:26;96134.00;;;28.10
14851;BMP180;7517;48.400;11.770;2023-07-31T13:59:55;96122.00;;;28.10
14851;BMP180;7517;48.400;11.770;2023-07-31T14:02:23;96119.00;;;28.10
14851;BMP180;7517;48.400;11.770;2023-07-31T14:04:50;96121.00;;;28.10
14851;BMP180;7517;48.400;11.770;2023-07-31T14:07:17;96120.00;;;28.10
14851;BMP180;7517;48.400;11.770;2023-07-31T14:09:45;96120.00;;;28.10
14851;BMP180;7517;48.400;11.770;2023-07-31T14:12:12;96116.00;;;28.20
14851;BMP180;7517;48.400;11.770;2023-07-31T14:14:40;96120.00;;;28.20
14851;BMP180;7517;48.400;11.770;2023-07-31T14:17:09;96117.00;;;28.20
14851;BMP180;7517;48.400;11.770;2023-07-31T14:19:37;96107.00;;;28.20